Castle Airport Merced US
ICAO: KMER
IATA: MER
Category: Medium
Scheduled Services: No

Elevation: 191 ft
TransAlt. 18000 ft.

Airport Communications:
NORCAL APP/DEP:120.95
AWO 3:124.475
CTAF/UNICOM:123.075

KMER Zoom In..

If you have problems with the map follow the link
https://www.worldairports.se/pages/airport.php?
ICAO=KMER

Runways:

(A) RW 13 length 11802 ft width 150 ft
---- / hdg 126

(B) RW 31 length 11802 ft width 150 ft
ILS 109.50 / hdg 306

Location; KMER
Day. 18 / Time. 23.45 Zulu
* Altimeter: 30.03
* Temperature: 29° c. 84.2°f.
* Wind from: 330° Speed 05 kn.
Dewpoint: 01° c.
Visibility: 10 Statute Miles.
Clouds: Clear (manual report).

KMER 182345Z 33005KT 10SM SKC 29/01 A3003


Wind From 330°
Speed 05 kn.

 
 
jpsmedia.com for Web Design worldairports.se 2018   terms of use